createdAt,value
2022-10-13T00:00:14.575Z,27.10
2022-10-13T00:02:41.210Z,21.58
2022-10-13T00:05:08.835Z,26.10
2022-10-13T00:07:35.509Z,30.45
2022-10-13T00:10:02.161Z,25.55
2022-10-13T00:12:28.863Z,25.45
2022-10-13T00:14:55.546Z,27.63
2022-10-13T00:17:22.334Z,28.92
2022-10-13T00:19:48.869Z,23.13
2022-10-13T00:22:15.672Z,26.05
2022-10-13T00:24:42.481Z,23.50
2022-10-13T00:27:08.982Z,23.92
2022-10-13T00:29:35.629Z,27.45
2022-10-13T00:32:02.278Z,26.63
2022-10-13T00:34:28.929Z,25.45
2022-10-13T00:36:55.468Z,23.20
2022-10-13T00:39:21.991Z,30.13
2022-10-13T00:41:48.613Z,23.90
2022-10-13T00:44:52.764Z,22.23
2022-10-13T00:47:21.147Z,25.98
2022-10-13T00:49:49.528Z,21.77
2022-10-13T00:52:19.557Z,19.00
2022-10-13T00:54:47.959Z,21.23
2022-10-13T00:57:14.889Z,21.42
2022-10-13T00:59:42.195Z,17.98
2022-10-13T01:02:09.302Z,18.75
2022-10-13T01:04:43.557Z,18.80
2022-10-13T01:07:10.798Z,17.92
2022-10-13T01:09:42.402Z,14.25
2022-10-13T01:12:46.662Z,21.80
2022-10-13T01:15:26.840Z,22.10
2022-10-13T01:17:59.644Z,16.30
2022-10-13T01:20:32.150Z,21.38
2022-10-13T01:23:08.044Z,19.13
2022-10-13T01:25:53.365Z,15.35
2022-10-13T01:28:57.034Z,18.52
2022-10-13T01:31:31.790Z,19.33
2022-10-13T01:34:11.333Z,14.55
2022-10-13T01:36:58.051Z,19.77
2022-10-13T01:39:33.610Z,17.08
2022-10-13T01:42:11.481Z,17.80
2022-10-13T01:44:42.891Z,19.67
2022-10-13T01:47:14.499Z,18.77
2022-10-13T01:49:42.238Z,16.10
2022-10-13T01:52:14.038Z,18.73
2022-10-13T01:54:40.773Z,19.98
2022-10-13T01:57:32.569Z,17.20
2022-10-13T02:00:02.472Z,20.03
2022-10-13T02:02:35.510Z,19.77
2022-10-13T02:05:19.893Z,19.25
2022-10-13T02:07:54.617Z,18.63
2022-10-13T02:10:27.421Z,16.40
2022-10-13T02:13:01.484Z,16.50
2022-10-13T02:15:54.444Z,16.77
2022-10-13T02:18:28.350Z,16.55
2022-10-13T02:20:55.384Z,18.75
2022-10-13T02:23:21.993Z,17.17
2022-10-13T02:25:50.171Z,19.35
2022-10-13T02:28:17.829Z,20.00
2022-10-13T02:30:46.005Z,19.33
2022-10-13T02:33:14.343Z,21.40
2022-10-13T02:35:42.247Z,22.42
2022-10-13T02:38:09.095Z,22.95
2022-10-13T02:40:35.796Z,24.48
2022-10-13T02:43:02.682Z,25.55
2022-10-13T02:45:29.272Z,27.58
2022-10-13T02:47:57.889Z,22.75
2022-10-13T02:50:24.611Z,25.85
2022-10-13T02:52:51.263Z,22.77
2022-10-13T02:55:17.973Z,26.23
2022-10-13T02:57:44.678Z,24.15
2022-10-13T03:00:11.966Z,22.02
2022-10-13T03:02:38.754Z,29.50
2022-10-13T03:05:06.785Z,26.90
2022-10-13T03:07:33.341Z,24.25
2022-10-13T03:10:00.003Z,24.15
2022-10-13T03:12:26.562Z,22.55
2022-10-13T03:14:53.124Z,22.88
2022-10-13T03:17:19.749Z,20.05
2022-10-13T03:19:46.298Z,20.17
2022-10-13T03:22:15.404Z,19.88
2022-10-13T03:24:42.453Z,25.02
2022-10-13T03:27:09.110Z,25.13
2022-10-13T03:29:35.719Z,23.58
2022-10-13T03:32:02.267Z,26.33
2022-10-13T03:34:28.786Z,30.15
2022-10-13T03:36:55.298Z,25.23
2022-10-13T03:39:22.230Z,27.85
2022-10-13T03:41:48.830Z,22.55
2022-10-13T03:44:15.811Z,26.55
2022-10-13T03:46:42.436Z,28.48
2022-10-13T03:49:11.860Z,22.95
2022-10-13T03:51:38.619Z,25.85
2022-10-13T03:54:05.185Z,29.58
2022-10-13T03:56:31.858Z,24.77
2022-10-13T03:59:00.445Z,21.50
2022-10-13T04:01:29.845Z,26.55
2022-10-13T04:03:58.308Z,26.60
2022-10-13T04:06:27.427Z,28.33
2022-10-13T04:08:55.132Z,27.48
2022-10-13T04:11:22.514Z,29.25
2022-10-13T04:13:49.071Z,21.65
2022-10-13T04:16:19.407Z,24.55
2022-10-13T04:18:50.962Z,23.85
2022-10-13T04:21:17.629Z,22.88
2022-10-13T04:23:44.179Z,23.05
2022-10-13T04:26:20.537Z,19.30
2022-10-13T04:28:49.315Z,29.73
2022-10-13T04:31:16.477Z,21.38
2022-10-13T04:33:44.340Z,20.40
2022-10-13T04:36:13.176Z,22.95
2022-10-13T04:38:40.131Z,23.10
2022-10-13T04:41:09.522Z,28.80
2022-10-13T04:43:36.473Z,27.45
2022-10-13T04:46:04.458Z,20.85
2022-10-13T04:48:31.168Z,25.02
2022-10-13T04:51:03.152Z,22.25
2022-10-13T04:53:31.288Z,24.85
2022-10-13T04:56:02.542Z,26.95
2022-10-13T04:58:29.602Z,30.80
2022-10-13T05:00:56.996Z,32.80
2022-10-13T05:03:24.641Z,33.88
2022-10-13T05:05:51.184Z,24.20
2022-10-13T05:08:17.908Z,26.27
2022-10-13T05:10:57.326Z,27.05
2022-10-13T05:13:26.903Z,25.80
2022-10-13T05:15:54.602Z,26.90
2022-10-13T05:18:21.347Z,24.95
2022-10-13T05:20:48.180Z,26.27
2022-10-13T05:23:15.783Z,25.05
2022-10-13T05:25:43.100Z,26.08
2022-10-13T05:28:09.817Z,31.55
2022-10-13T05:30:36.696Z,26.30
2022-10-13T05:33:03.764Z,29.80
2022-10-13T05:35:30.405Z,29.80
2022-10-13T05:37:57.124Z,24.42
2022-10-13T05:40:24.132Z,33.65
2022-10-13T05:42:51.543Z,33.55
2022-10-13T05:45:20.006Z,30.38
2022-10-13T05:47:46.865Z,34.75
2022-10-13T05:50:13.641Z,27.73
2022-10-13T05:52:41.655Z,33.92
2022-10-13T05:55:11.119Z,31.83
2022-10-13T05:57:42.110Z,36.25
2022-10-13T06:00:12.200Z,38.33
2022-10-13T06:03:05.935Z,36.55
2022-10-13T06:05:32.838Z,30.83
2022-10-13T06:08:00.987Z,28.00
2022-10-13T06:10:28.446Z,40.53
2022-10-13T06:12:55.219Z,38.20
2022-10-13T06:15:27.050Z,34.38
2022-10-13T06:17:54.840Z,35.78
2022-10-13T06:20:21.665Z,39.63
2022-10-13T06:22:50.130Z,39.15
2022-10-13T06:25:17.040Z,37.88
2022-10-13T06:27:43.871Z,39.00
2022-10-13T06:30:10.765Z,40.70
2022-10-13T06:32:37.441Z,40.95
2022-10-13T06:35:04.625Z,35.85
2022-10-13T06:37:32.366Z,35.83
2022-10-13T06:39:58.937Z,40.42
2022-10-13T06:42:25.854Z,26.90
2022-10-13T06:44:52.548Z,39.80
2022-10-13T06:47:19.128Z,38.95
2022-10-13T06:49:45.858Z,41.83
2022-10-13T06:52:12.397Z,42.28
2022-10-13T06:54:39.054Z,38.30
2022-10-13T06:57:06.557Z,27.55
2022-10-13T06:59:33.642Z,31.38
2022-10-13T07:02:00.283Z,27.80
2022-10-13T07:04:28.292Z,35.20
2022-10-13T07:06:55.007Z,20.65
2022-10-13T07:09:21.583Z,39.10
2022-10-13T07:11:48.385Z,32.13
2022-10-13T07:14:15.032Z,33.13
2022-10-13T07:16:41.784Z,32.20
2022-10-13T07:19:08.502Z,23.98
2022-10-13T07:21:35.140Z,24.23
2022-10-13T07:24:03.587Z,29.55
2022-10-13T07:26:30.160Z,19.95
2022-10-13T07:28:56.881Z,29.45
2022-10-13T07:31:23.528Z,28.17
2022-10-13T07:33:51.601Z,28.88
2022-10-13T07:36:19.016Z,25.90
2022-10-13T07:38:46.827Z,26.67
2022-10-13T07:41:13.933Z,34.80
2022-10-13T07:43:40.660Z,27.13
2022-10-13T07:46:07.775Z,33.33
2022-10-13T07:48:35.865Z,34.25
2022-10-13T07:51:07.315Z,42.10
2022-10-13T07:53:35.462Z,24.53
2022-10-13T07:56:04.248Z,31.25
2022-10-13T07:58:30.911Z,27.80
2022-10-13T08:00:59.712Z,24.92
2022-10-13T08:03:27.723Z,34.85
2022-10-13T08:05:55.012Z,37.30
2022-10-13T08:08:21.725Z,29.67
2022-10-13T08:10:48.736Z,39.97
2022-10-13T08:13:15.566Z,34.05
2022-10-13T08:15:43.584Z,26.33
2022-10-13T08:18:11.934Z,35.92
2022-10-13T08:20:43.851Z,44.67
2022-10-13T08:23:11.788Z,36.10
2022-10-13T08:25:43.298Z,17.85
2022-10-13T08:28:24.695Z,31.00
2022-10-13T08:30:53.511Z,38.72
2022-10-13T08:33:20.631Z,32.35
2022-10-13T08:35:48.051Z,35.22
2022-10-13T08:38:14.648Z,36.45
2022-10-13T08:40:47.154Z,35.97
2022-10-13T08:43:18.695Z,33.97
2022-10-13T08:45:48.162Z,34.47
2022-10-13T08:48:17.752Z,20.77
2022-10-13T08:50:47.703Z,38.15
2022-10-13T08:53:37.210Z,35.60
2022-10-13T08:56:11.087Z,36.13
2022-10-13T08:58:40.719Z,32.83
2022-10-13T09:01:10.453Z,29.73
2022-10-13T09:03:56.446Z,33.65
2022-10-13T09:06:42.858Z,36.65
2022-10-13T09:09:15.651Z,32.67
2022-10-13T09:11:46.166Z,33.85
2022-10-13T09:14:19.707Z,23.77
2022-10-13T09:16:46.965Z,35.67
2022-10-13T09:19:20.506Z,17.33
2022-10-13T09:21:48.375Z,18.08
2022-10-13T09:24:17.386Z,32.92
2022-10-13T09:26:45.762Z,15.68
2022-10-13T09:29:18.571Z,19.30
2022-10-13T09:31:45.507Z,22.63
2022-10-13T09:34:25.234Z,28.65
2022-10-13T09:37:03.323Z,23.02
2022-10-13T09:39:31.818Z,18.20
2022-10-13T09:42:22.789Z,25.55
2022-10-13T09:44:58.871Z,17.85
2022-10-13T09:47:29.086Z,22.95
2022-10-13T09:50:20.608Z,26.17
2022-10-13T09:52:49.040Z,24.17
2022-10-13T09:55:34.868Z,29.95
2022-10-13T09:58:26.253Z,24.38
2022-10-13T10:00:54.323Z,24.13
2022-10-13T10:03:34.761Z,24.65
2022-10-13T10:06:05.624Z,25.52
2022-10-13T10:08:57.992Z,21.05
2022-10-13T10:11:41.582Z,15.98
2022-10-13T10:14:37.003Z,20.20
2022-10-13T10:17:37.055Z,21.13
2022-10-13T10:20:23.011Z,22.90
2022-10-13T10:22:59.859Z,31.33
2022-10-13T10:25:57.490Z,22.38
2022-10-13T10:28:52.110Z,17.40
2022-10-13T10:31:55.722Z,18.92
2022-10-13T10:34:38.475Z,20.10
2022-10-13T10:37:25.478Z,22.17
2022-10-13T10:40:10.382Z,27.95
2022-10-13T10:43:04.928Z,18.13
2022-10-13T10:45:37.979Z,16.80
2022-10-13T10:48:19.947Z,22.08
2022-10-13T10:50:47.228Z,19.02
2022-10-13T10:53:42.045Z,21.38
2022-10-13T10:56:34.038Z,20.77
2022-10-13T10:59:06.870Z,18.48
2022-10-13T11:01:54.096Z,18.33
2022-10-13T11:04:23.668Z,16.48
2022-10-13T11:06:50.726Z,21.35
2022-10-13T11:09:43.276Z,17.38
2022-10-13T11:15:12.888Z,20.98
2022-10-13T11:17:41.371Z,15.23
2022-10-13T11:20:17.953Z,12.40
2022-10-13T11:23:04.687Z,12.20
2022-10-13T11:25:44.674Z,20.45
2022-10-13T11:28:23.542Z,14.38
2022-10-13T11:31:17.419Z,16.73
2022-10-13T11:33:45.419Z,13.93
2022-10-13T11:36:31.457Z,13.82
2022-10-13T11:39:28.036Z,16.27
2022-10-13T11:42:54.420Z,13.27
2022-10-13T11:46:02.016Z,12.13
2022-10-13T11:48:36.655Z,17.58
2022-10-13T11:51:23.224Z,15.38
2022-10-13T11:53:58.759Z,11.65
2022-10-13T11:56:47.463Z,10.30
2022-10-13T11:59:29.223Z,15.95
2022-10-13T12:02:00.547Z,10.32
2022-10-13T12:04:28.863Z,17.90
2022-10-13T12:07:02.709Z,16.38
2022-10-13T12:09:31.795Z,17.05
2022-10-13T12:12:02.873Z,20.17
2022-10-13T12:17:31.082Z,43.08
2022-10-13T12:20:18.430Z,25.73
2022-10-13T12:22:52.740Z,20.52
2022-10-13T12:25:24.324Z,16.25
2022-10-13T12:27:54.212Z,15.48
2022-10-13T12:30:24.234Z,14.60
2022-10-13T12:32:54.694Z,11.75
2022-10-13T12:35:25.935Z,16.50
2022-10-13T12:37:54.922Z,15.70
2022-10-13T12:40:22.997Z,8.52
2022-10-13T12:42:50.385Z,9.50
2022-10-13T12:45:23.359Z,13.27
2022-10-13T12:47:52.220Z,11.32
2022-10-13T12:50:23.017Z,12.13
2022-10-13T12:52:52.349Z,12.95
2022-10-13T12:55:21.570Z,11.23
2022-10-13T12:57:50.752Z,14.38
2022-10-13T13:00:26.741Z,8.98
2022-10-13T13:03:02.572Z,17.00
2022-10-13T13:05:36.791Z,19.77
2022-10-13T13:08:06.400Z,16.05
2022-10-13T13:10:35.107Z,15.30
2022-10-13T13:13:15.343Z,15.48
2022-10-13T13:15:42.076Z,17.40
2022-10-13T13:18:27.333Z,15.65
2022-10-13T13:20:54.825Z,15.75
2022-10-13T13:23:23.315Z,11.02
2022-10-13T13:26:19.845Z,15.25
2022-10-13T13:28:54.876Z,11.25
2022-10-13T13:31:24.458Z,15.02
2022-10-13T13:33:51.548Z,9.70
2022-10-13T13:36:22.899Z,10.52
2022-10-13T13:38:50.593Z,14.23
2022-10-13T13:41:17.691Z,13.82
2022-10-13T13:43:44.349Z,9.77
2022-10-13T13:46:21.167Z,13.70
2022-10-13T13:48:48.413Z,16.17
2022-10-13T13:51:17.352Z,13.98
2022-10-13T13:53:44.057Z,16.05
2022-10-13T13:56:16.448Z,14.77
2022-10-13T13:58:43.465Z,21.42
2022-10-13T14:01:10.590Z,14.77
2022-10-13T14:03:37.731Z,16.70
2022-10-13T14:06:04.835Z,14.60
2022-10-13T14:08:37.214Z,12.00
2022-10-13T14:11:07.579Z,18.08
2022-10-13T14:13:35.193Z,15.82
2022-10-13T14:16:04.127Z,10.57
2022-10-13T14:18:31.446Z,16.25
2022-10-13T14:20:58.135Z,11.48
2022-10-13T14:23:24.751Z,12.52
2022-10-13T14:25:51.407Z,11.05
2022-10-13T14:28:18.657Z,13.27
2022-10-13T14:30:45.826Z,7.95
2022-10-13T14:33:13.177Z,8.25
2022-10-13T14:35:41.813Z,11.27
2022-10-13T14:38:08.494Z,12.82
2022-10-13T14:40:35.340Z,10.15
2022-10-13T14:43:01.899Z,15.15
2022-10-13T14:45:28.704Z,8.48
2022-10-13T14:47:55.349Z,15.35
2022-10-13T14:50:22.013Z,15.73
2022-10-13T14:52:48.748Z,14.43
2022-10-13T14:55:15.527Z,13.73
2022-10-13T14:57:42.093Z,11.23
2022-10-13T15:00:10.772Z,19.98
2022-10-13T15:02:37.432Z,11.98
2022-10-13T15:05:04.465Z,12.57
2022-10-13T15:07:31.092Z,9.57
2022-10-13T15:10:05.363Z,12.35
2022-10-13T15:12:32.899Z,19.05
2022-10-13T15:14:59.568Z,21.35
2022-10-13T15:17:26.328Z,17.95
2022-10-13T15:19:53.065Z,15.45
2022-10-13T15:22:20.186Z,16.30
2022-10-13T15:24:46.979Z,13.93
2022-10-13T15:27:13.750Z,17.10
2022-10-13T15:29:41.983Z,13.02
2022-10-13T15:32:11.280Z,18.25
2022-10-13T15:34:40.867Z,18.00
2022-10-13T15:37:07.923Z,12.00
2022-10-13T15:39:34.811Z,16.48
2022-10-13T15:42:01.612Z,13.90
2022-10-13T15:44:36.485Z,13.32
2022-10-13T15:47:08.528Z,16.25
2022-10-13T15:49:39.465Z,19.40
2022-10-13T15:52:06.226Z,17.77
2022-10-13T15:54:33.110Z,17.02
2022-10-13T15:57:00.178Z,14.68
2022-10-13T15:59:26.985Z,13.75
2022-10-13T16:01:53.512Z,15.73
2022-10-13T16:04:20.371Z,17.15
2022-10-13T16:06:46.901Z,16.73
2022-10-13T16:09:13.504Z,17.50
2022-10-13T16:11:40.166Z,16.25
2022-10-13T16:14:06.707Z,14.80
2022-10-13T16:16:33.381Z,16.20
2022-10-13T16:19:00.602Z,13.30
2022-10-13T16:21:27.545Z,15.98
2022-10-13T16:23:54.180Z,19.70
2022-10-13T16:26:21.182Z,22.02
2022-10-13T16:28:47.957Z,17.40
2022-10-13T16:31:16.956Z,24.88
2022-10-13T16:33:45.242Z,27.17
2022-10-13T16:36:19.169Z,39.80
2022-10-13T16:38:47.324Z,39.97
2022-10-13T16:41:17.041Z,35.50
2022-10-13T16:43:45.805Z,33.03
2022-10-13T16:46:14.972Z,37.92
2022-10-13T16:48:43.093Z,30.33
2022-10-13T16:51:14.987Z,27.92
2022-10-13T16:53:42.040Z,32.65
2022-10-13T16:56:09.118Z,31.40
2022-10-13T16:58:36.083Z,31.30
2022-10-13T17:03:39.139Z,18.13
2022-10-13T17:06:07.079Z,26.45
2022-10-13T17:08:34.036Z,19.38
2022-10-13T17:11:00.864Z,25.30
2022-10-13T17:13:27.719Z,18.55
2022-10-13T17:15:56.209Z,16.33
2022-10-13T17:18:23.786Z,22.30
2022-10-13T17:20:56.582Z,24.00
2022-10-13T17:23:24.448Z,17.75
2022-10-13T17:25:52.701Z,19.95
2022-10-13T17:28:19.805Z,18.67
2022-10-13T17:30:57.941Z,23.38
2022-10-13T17:33:24.861Z,24.95
2022-10-13T17:35:51.950Z,24.02
2022-10-13T17:38:18.932Z,18.27
2022-10-13T17:40:45.674Z,17.60
2022-10-13T17:43:12.548Z,18.52
2022-10-13T17:45:39.209Z,22.33
2022-10-13T17:48:09.418Z,16.85
2022-10-13T17:50:37.309Z,25.67
2022-10-13T17:53:04.063Z,19.42
2022-10-13T17:55:31.227Z,19.30
2022-10-13T17:57:58.138Z,17.20
2022-10-13T18:00:24.878Z,22.25
2022-10-13T18:02:51.863Z,25.52
2022-10-13T18:05:18.880Z,20.50
2022-10-13T18:07:45.722Z,19.02
2022-10-13T18:10:12.988Z,17.20
2022-10-13T18:12:41.683Z,16.48
2022-10-13T18:15:08.827Z,20.65
2022-10-13T18:17:35.517Z,17.70
2022-10-13T18:20:02.204Z,22.50
2022-10-13T18:22:28.799Z,16.85
2022-10-13T18:24:57.201Z,16.67
2022-10-13T18:27:24.162Z,16.90
2022-10-13T18:29:50.911Z,18.25
2022-10-13T18:32:17.722Z,20.83
2022-10-13T18:34:44.601Z,21.23
2022-10-13T18:37:11.569Z,17.75
2022-10-13T18:39:38.329Z,15.90
2022-10-13T18:42:05.804Z,16.98
2022-10-13T18:44:32.480Z,12.45
2022-10-13T18:46:59.170Z,17.88
2022-10-13T18:49:31.637Z,18.35
2022-10-13T18:52:00.533Z,19.23
2022-10-13T18:54:28.826Z,17.92
2022-10-13T18:56:55.623Z,16.60
2022-10-13T18:59:23.018Z,23.48
2022-10-13T19:01:50.203Z,21.65
2022-10-13T19:04:17.188Z,10.43
2022-10-13T19:06:44.702Z,13.40
2022-10-13T19:09:14.073Z,20.80
2022-10-13T19:11:41.113Z,20.05
2022-10-13T19:14:11.359Z,21.48
2022-10-13T19:16:39.963Z,10.63
2022-10-13T19:19:09.216Z,15.80
2022-10-13T19:21:37.613Z,12.02
2022-10-13T19:24:06.683Z,21.92
2022-10-13T19:26:35.807Z,14.77
2022-10-13T19:29:07.100Z,17.02
2022-10-13T19:31:37.330Z,11.47
2022-10-13T19:34:06.072Z,17.77
2022-10-13T19:36:35.955Z,22.40
2022-10-13T19:39:06.226Z,17.60
2022-10-13T19:41:33.923Z,19.48
2022-10-13T19:44:02.450Z,22.70
2022-10-13T19:46:29.812Z,18.95
2022-10-13T19:48:56.967Z,13.38
2022-10-13T19:51:24.275Z,19.65
2022-10-13T19:53:52.991Z,15.18
2022-10-13T19:56:23.293Z,19.40
2022-10-13T19:58:51.382Z,18.38
2022-10-13T20:01:19.760Z,19.60
2022-10-13T20:03:47.367Z,17.17
2022-10-13T20:06:14.352Z,18.38
2022-10-13T20:08:41.318Z,16.35
2022-10-13T20:11:22.216Z,18.70
2022-10-13T20:13:53.438Z,19.52
2022-10-13T20:16:23.470Z,22.17
2022-10-13T20:18:56.912Z,18.02
2022-10-13T20:21:28.693Z,27.38
2022-10-13T20:23:56.015Z,21.75
2022-10-13T20:26:23.717Z,18.73
2022-10-13T20:28:53.490Z,22.90
2022-10-13T20:31:22.494Z,20.25
2022-10-13T20:33:54.450Z,18.73
2022-10-13T20:36:21.367Z,20.10
2022-10-13T20:38:49.408Z,19.63
2022-10-13T20:41:27.885Z,18.83
2022-10-13T20:43:56.465Z,17.20
2022-10-13T20:46:23.995Z,16.20
2022-10-13T20:49:09.977Z,11.77
2022-10-13T20:51:39.689Z,17.35
2022-10-13T20:54:06.878Z,17.45
2022-10-13T20:56:34.799Z,22.85
2022-10-13T20:59:04.420Z,18.25
2022-10-13T21:01:34.845Z,18.48
2022-10-13T21:04:03.264Z,17.80
2022-10-13T21:06:29.908Z,16.40
2022-10-13T21:08:57.816Z,17.35
2022-10-13T21:11:26.147Z,18.25
2022-10-13T21:13:53.451Z,16.40
2022-10-13T21:16:23.428Z,14.50
2022-10-13T21:18:52.162Z,17.25
2022-10-13T21:21:23.704Z,14.85
2022-10-13T21:23:52.049Z,18.45
2022-10-13T21:26:22.278Z,18.90
2022-10-13T21:28:50.428Z,16.00
2022-10-13T21:31:19.855Z,21.13
2022-10-13T21:33:46.767Z,17.38
2022-10-13T21:36:16.517Z,15.60
2022-10-13T21:38:45.225Z,18.13
2022-10-13T21:41:13.665Z,15.82
2022-10-13T21:43:40.685Z,16.23
2022-10-13T21:46:22.375Z,21.08
2022-10-13T21:48:49.547Z,26.02
2022-10-13T21:51:22.362Z,21.73
2022-10-13T21:53:54.639Z,22.83
2022-10-13T21:58:50.089Z,20.48
2022-10-13T22:01:18.482Z,22.38
2022-10-13T22:03:49.982Z,19.23
2022-10-13T22:06:19.714Z,19.75
2022-10-13T22:08:49.339Z,18.58
2022-10-13T22:11:18.506Z,21.23
2022-10-13T22:13:46.199Z,19.42
2022-10-13T22:16:22.063Z,18.33
2022-10-13T22:18:51.019Z,19.95
2022-10-13T22:21:21.409Z,17.75
2022-10-13T22:23:49.064Z,17.45
2022-10-13T22:26:17.864Z,20.45
2022-10-13T22:28:45.741Z,17.67
2022-10-13T22:31:14.019Z,19.35
2022-10-13T22:33:44.665Z,16.67
2022-10-13T22:36:17.205Z,20.27
2022-10-13T22:38:45.275Z,17.92
2022-10-13T22:41:13.259Z,18.45
2022-10-13T22:43:40.434Z,17.95
2022-10-13T22:46:07.921Z,15.20
2022-10-13T22:48:39.656Z,18.88
2022-10-13T22:51:09.946Z,17.63
2022-10-13T22:53:36.986Z,19.60
2022-10-13T22:56:08.450Z,18.90
2022-10-13T22:58:35.700Z,16.40
2022-10-13T23:01:11.943Z,16.33
2022-10-13T23:03:39.881Z,15.98
2022-10-13T23:06:08.480Z,17.95
2022-10-13T23:08:35.354Z,20.15
2022-10-13T23:11:02.058Z,19.73
2022-10-13T23:13:28.775Z,13.10
2022-10-13T23:16:06.601Z,17.90
2022-10-13T23:18:33.362Z,18.92
2022-10-13T23:21:00.100Z,17.45
2022-10-13T23:23:28.194Z,17.70
2022-10-13T23:25:54.817Z,21.00
2022-10-13T23:28:21.412Z,15.73
2022-10-13T23:30:48.193Z,17.17
2022-10-13T23:33:16.379Z,17.73
2022-10-13T23:35:43.013Z,22.35
2022-10-13T23:38:10.261Z,16.13
2022-10-13T23:40:36.991Z,14.70
2022-10-13T23:43:03.687Z,14.90
2022-10-13T23:45:30.331Z,17.00
2022-10-13T23:47:56.994Z,18.80
2022-10-13T23:50:26.416Z,17.77
2022-10-13T23:52:55.196Z,15.45
2022-10-13T23:55:21.753Z,16.45
2022-10-13T23:57:48.355Z,21.52
